createdAt,value
2017-10-09T00:00:36.097Z,1.70
2017-10-09T00:03:02.907Z,1.43
2017-10-09T00:05:29.779Z,1.83
2017-10-09T00:07:56.660Z,1.70
2017-10-09T00:10:23.467Z,1.77
2017-10-09T00:12:50.630Z,1.50
2017-10-09T00:15:17.770Z,1.70
2017-10-09T00:17:44.616Z,1.73
2017-10-09T00:20:11.683Z,1.70
2017-10-09T00:22:38.495Z,1.80
2017-10-09T00:25:05.328Z,1.83
2017-10-09T00:27:32.177Z,3.07
2017-10-09T00:29:58.986Z,2.37
2017-10-09T00:32:26.093Z,1.70
2017-10-09T00:34:53.240Z,1.90
2017-10-09T00:37:20.388Z,1.60
2017-10-09T00:39:47.232Z,1.57
2017-10-09T00:42:14.136Z,1.80
2017-10-09T00:44:40.980Z,1.50
2017-10-09T00:47:07.803Z,1.67
2017-10-09T00:49:34.906Z,2.37
2017-10-09T00:52:01.785Z,1.73
2017-10-09T00:54:28.904Z,2.00
2017-10-09T00:56:55.801Z,2.53
2017-10-09T00:59:22.680Z,1.73
2017-10-09T01:01:50.116Z,1.90
2017-10-09T01:04:17.309Z,1.53
2017-10-09T01:06:44.147Z,2.30
2017-10-09T01:09:11.293Z,1.90
2017-10-09T01:11:38.166Z,1.67
2017-10-09T01:14:05.016Z,2.03
2017-10-09T01:16:31.896Z,2.23
2017-10-09T01:18:58.743Z,1.73
2017-10-09T01:21:25.591Z,1.80
2017-10-09T01:23:52.460Z,1.97
2017-10-09T01:26:19.286Z,2.27
2017-10-09T01:28:46.121Z,1.97
2017-10-09T01:31:13.292Z,1.50
2017-10-09T01:33:40.158Z,2.37
2017-10-09T01:36:07.005Z,1.60
2017-10-09T01:38:33.819Z,2.30
2017-10-09T01:41:00.688Z,1.73
2017-10-09T01:43:27.816Z,3.80
2017-10-09T01:45:54.656Z,1.67
2017-10-09T01:48:21.822Z,2.07
2017-10-09T01:50:48.631Z,2.30
2017-10-09T01:53:15.695Z,2.10
2017-10-09T01:55:42.515Z,1.70
2017-10-09T01:58:09.343Z,2.00
2017-10-09T02:00:36.437Z,2.17
2017-10-09T02:03:03.344Z,2.67
2017-10-09T02:05:30.527Z,2.20
2017-10-09T02:07:57.380Z,2.70
2017-10-09T02:10:24.518Z,2.43
2017-10-09T02:12:51.373Z,3.50
2017-10-09T02:15:18.187Z,2.80
2017-10-09T02:17:45.295Z,2.60
2017-10-09T02:20:12.408Z,3.10
2017-10-09T02:22:39.224Z,2.50
2017-10-09T02:25:06.043Z,2.33
2017-10-09T02:27:33.138Z,2.70
2017-10-09T02:30:00.605Z,2.50
2017-10-09T02:32:27.751Z,2.43
2017-10-09T02:34:54.555Z,2.30
2017-10-09T02:37:21.365Z,2.80
2017-10-09T02:39:48.201Z,2.17
2017-10-09T02:42:15.327Z,2.90
2017-10-09T02:44:42.477Z,2.77
2017-10-09T02:47:09.624Z,3.70
2017-10-09T02:49:36.447Z,2.20
2017-10-09T02:52:03.621Z,3.73
2017-10-09T02:54:30.486Z,2.50
2017-10-09T02:56:57.296Z,3.00
2017-10-09T02:59:24.346Z,3.60
2017-10-09T03:01:51.179Z,3.07
2017-10-09T03:04:18.348Z,3.57
2017-10-09T03:06:45.192Z,3.50
2017-10-09T03:09:12.336Z,2.73
2017-10-09T03:11:39.143Z,3.90
2017-10-09T03:14:06.226Z,3.07
2017-10-09T03:16:33.056Z,3.10
2017-10-09T03:19:00.118Z,3.70
2017-10-09T03:21:26.968Z,3.73
2017-10-09T03:23:54.110Z,3.93
2017-10-09T03:26:20.956Z,4.17
2017-10-09T03:28:47.775Z,2.73
2017-10-09T03:31:14.948Z,3.10
2017-10-09T03:33:41.811Z,3.60
2017-10-09T03:36:08.650Z,2.63
2017-10-09T03:38:35.486Z,3.60
2017-10-09T03:41:02.292Z,2.47
2017-10-09T03:43:29.107Z,4.67
2017-10-09T03:45:55.972Z,3.03
2017-10-09T03:48:22.840Z,3.10
2017-10-09T03:50:49.717Z,2.60
2017-10-09T03:53:16.950Z,4.00
2017-10-09T03:55:43.796Z,3.53
2017-10-09T03:58:10.647Z,3.07
2017-10-09T04:00:37.483Z,4.50
2017-10-09T04:03:04.631Z,3.57
2017-10-09T04:05:31.779Z,3.67
2017-10-09T04:07:58.801Z,4.23
2017-10-09T04:10:25.985Z,4.03
2017-10-09T04:12:53.128Z,2.90
2017-10-09T04:15:20.024Z,3.83
2017-10-09T04:17:46.831Z,3.97
2017-10-09T04:20:13.708Z,3.73
2017-10-09T04:22:40.912Z,3.60
2017-10-09T04:25:07.724Z,4.27
2017-10-09T04:27:34.555Z,4.37
2017-10-09T04:30:01.399Z,5.30
2017-10-09T04:32:28.244Z,5.07
2017-10-09T04:34:55.338Z,4.10
2017-10-09T04:37:22.233Z,4.73
2017-10-09T04:39:49.093Z,4.30
2017-10-09T04:42:15.938Z,4.07
2017-10-09T04:44:42.767Z,4.87
2017-10-09T04:47:09.956Z,3.93
2017-10-09T04:49:36.808Z,5.00
2017-10-09T04:52:03.951Z,6.10
2017-10-09T04:54:30.820Z,6.70
2017-10-09T04:56:57.660Z,5.10
2017-10-09T04:59:24.788Z,4.80
2017-10-09T05:01:51.872Z,5.03
2017-10-09T05:04:18.995Z,6.77
2017-10-09T05:06:46.131Z,5.63
2017-10-09T05:09:12.996Z,6.53
2017-10-09T05:11:40.015Z,4.30
2017-10-09T05:14:06.847Z,5.27
2017-10-09T05:16:33.910Z,5.77
2017-10-09T05:19:00.772Z,6.60
2017-10-09T05:21:27.912Z,6.80
2017-10-09T05:23:54.744Z,5.30
2017-10-09T05:26:21.600Z,7.43
2017-10-09T05:28:48.452Z,6.77
2017-10-09T05:31:15.592Z,8.40
2017-10-09T05:33:42.436Z,7.57
2017-10-09T05:36:09.329Z,6.00
2017-10-09T05:38:36.184Z,8.13
2017-10-09T05:41:03.028Z,7.00
2017-10-09T05:43:29.895Z,10.40
2017-10-09T05:45:56.727Z,10.03
2017-10-09T05:48:23.977Z,9.57
2017-10-09T05:50:50.827Z,10.90
2017-10-09T05:53:17.890Z,11.47
2017-10-09T05:55:44.735Z,11.07
2017-10-09T05:58:11.641Z,11.43
2017-10-09T06:00:38.732Z,10.80
2017-10-09T06:03:05.576Z,10.40
2017-10-09T06:05:32.723Z,11.43
2017-10-09T06:07:59.539Z,11.13
2017-10-09T06:10:26.371Z,11.00
2017-10-09T06:12:53.472Z,10.23
2017-10-09T06:15:20.275Z,8.60
2017-10-09T06:17:47.128Z,8.60
2017-10-09T06:20:14.300Z,9.50
2017-10-09T06:22:41.119Z,9.13
2017-10-09T06:25:07.985Z,10.00
2017-10-09T06:27:34.856Z,8.70
2017-10-09T06:30:01.900Z,8.93
2017-10-09T06:32:29.026Z,7.20
2017-10-09T06:34:55.928Z,7.87
2017-10-09T06:37:22.768Z,8.57
2017-10-09T06:39:49.587Z,8.00
2017-10-09T06:42:16.763Z,7.40
2017-10-09T06:44:43.600Z,8.83
2017-10-09T06:47:10.448Z,7.77
2017-10-09T06:49:37.282Z,6.97
2017-10-09T06:52:04.124Z,7.20
2017-10-09T06:54:30.984Z,7.67
2017-10-09T06:56:58.172Z,7.37
2017-10-09T06:59:25.026Z,7.23
2017-10-09T07:01:51.861Z,7.77
2017-10-09T07:04:18.764Z,8.17
2017-10-09T07:06:45.587Z,8.30
2017-10-09T07:09:12.481Z,8.50
2017-10-09T07:11:39.361Z,8.07
2017-10-09T07:14:06.205Z,8.37
2017-10-09T07:16:33.324Z,7.80
2017-10-09T07:19:00.160Z,8.50
2017-10-09T07:21:26.976Z,8.20
2017-10-09T07:23:53.854Z,8.90
2017-10-09T07:26:20.683Z,9.40
2017-10-09T07:28:47.504Z,9.73
2017-10-09T07:31:14.308Z,8.77
2017-10-09T07:33:41.179Z,10.00
2017-10-09T07:36:08.023Z,9.00
2017-10-09T07:38:34.876Z,11.57
2017-10-09T07:41:01.754Z,8.77
2017-10-09T07:43:28.791Z,8.10
2017-10-09T07:45:55.636Z,8.97
2017-10-09T07:48:22.518Z,7.87
2017-10-09T07:50:49.364Z,7.80
2017-10-09T07:53:16.484Z,8.40
2017-10-09T07:55:43.330Z,8.47
2017-10-09T07:58:10.142Z,8.20
2017-10-09T08:00:37.223Z,9.30
2017-10-09T08:03:04.094Z,8.73
2017-10-09T08:05:30.920Z,9.40
2017-10-09T08:07:58.051Z,8.10
2017-10-09T08:10:24.902Z,6.67
2017-10-09T08:12:52.062Z,6.63
2017-10-09T08:15:18.905Z,7.00
2017-10-09T08:17:45.739Z,5.80
2017-10-09T08:20:12.884Z,6.20
2017-10-09T08:22:39.690Z,5.50
2017-10-09T08:25:06.771Z,4.40
2017-10-09T08:27:33.575Z,4.37
2017-10-09T08:30:00.382Z,4.53
2017-10-09T08:32:27.244Z,3.60
2017-10-09T08:34:54.078Z,4.33
2017-10-09T08:37:21.197Z,4.43
2017-10-09T08:39:48.068Z,4.20
2017-10-09T08:42:14.871Z,3.70
2017-10-09T08:44:41.712Z,3.37
2017-10-09T08:47:08.605Z,4.17
2017-10-09T08:49:35.422Z,4.07
2017-10-09T08:52:02.555Z,5.50
2017-10-09T08:54:29.399Z,18.87
2017-10-09T08:56:56.558Z,9.40
2017-10-09T08:59:23.368Z,8.60
2017-10-09T09:01:50.228Z,7.43
2017-10-09T09:04:17.069Z,9.03
2017-10-09T09:06:43.918Z,8.13
2017-10-09T09:09:10.796Z,9.20
2017-10-09T09:11:37.627Z,5.50
2017-10-09T09:14:05.351Z,4.63
2017-10-09T09:16:32.199Z,3.83
2017-10-09T09:18:59.263Z,4.63
2017-10-09T09:21:26.132Z,5.83
2017-10-09T09:23:52.997Z,6.23
2017-10-09T09:26:20.103Z,5.83
2017-10-09T09:28:46.946Z,10.97
2017-10-09T09:31:13.820Z,6.30
2017-10-09T09:33:40.944Z,7.30
2017-10-09T09:36:07.792Z,6.00
2017-10-09T09:38:34.936Z,3.27
2017-10-09T09:41:01.743Z,4.20
2017-10-09T09:43:28.928Z,3.53
2017-10-09T09:45:55.771Z,2.83
2017-10-09T09:48:22.575Z,2.90
2017-10-09T09:50:49.413Z,3.10
2017-10-09T09:53:16.609Z,3.90
2017-10-09T09:55:43.427Z,4.53
2017-10-09T09:58:10.289Z,4.33
2017-10-09T10:00:37.170Z,5.07
2017-10-09T10:03:04.284Z,5.10
2017-10-09T10:05:31.144Z,5.60
2017-10-09T10:07:58.282Z,5.83
2017-10-09T10:10:25.132Z,6.17
2017-10-09T10:12:52.272Z,9.80
2017-10-09T10:15:19.127Z,6.93
2017-10-09T10:17:46.268Z,5.10
2017-10-09T10:20:13.116Z,4.17
2017-10-09T10:22:39.950Z,4.60
2017-10-09T10:25:06.999Z,4.03
2017-10-09T10:27:33.847Z,3.37
2017-10-09T10:30:00.736Z,3.77
2017-10-09T10:32:27.840Z,3.63
2017-10-09T10:34:54.696Z,4.17
2017-10-09T10:37:21.572Z,4.80
2017-10-09T10:39:48.677Z,3.10
2017-10-09T10:42:15.479Z,3.53
2017-10-09T10:44:42.564Z,3.43
2017-10-09T10:47:09.715Z,3.97
2017-10-09T10:49:36.569Z,3.97
2017-10-09T10:52:03.713Z,2.83
2017-10-09T10:54:30.544Z,3.00
2017-10-09T10:56:57.381Z,1.60
2017-10-09T10:59:24.553Z,2.17
2017-10-09T11:01:51.392Z,2.30
2017-10-09T11:04:18.201Z,2.33
2017-10-09T11:06:45.383Z,2.13
2017-10-09T11:09:12.920Z,2.30
2017-10-09T11:11:39.769Z,2.33
2017-10-09T11:14:06.937Z,1.73
2017-10-09T11:16:33.762Z,2.77
2017-10-09T11:19:00.579Z,1.90
2017-10-09T11:21:27.663Z,1.70
2017-10-09T11:23:54.520Z,3.30
2017-10-09T11:26:21.668Z,1.87
2017-10-09T11:28:48.528Z,1.90
2017-10-09T11:31:15.651Z,1.83
2017-10-09T11:33:42.500Z,2.50
2017-10-09T11:36:09.331Z,1.50
2017-10-09T11:38:36.382Z,3.77
2017-10-09T11:41:03.252Z,2.63
2017-10-09T11:43:30.307Z,2.53
2017-10-09T11:45:57.432Z,1.70
2017-10-09T11:48:24.273Z,1.97
2017-10-09T11:50:51.133Z,1.73
2017-10-09T11:53:17.948Z,2.00
2017-10-09T11:55:44.844Z,1.70
2017-10-09T11:58:11.947Z,1.50
2017-10-09T12:00:38.755Z,1.43
2017-10-09T12:03:05.579Z,1.50
2017-10-09T12:05:32.404Z,2.23
2017-10-09T12:07:59.253Z,1.57
2017-10-09T12:10:26.110Z,1.50
2017-10-09T12:12:53.013Z,1.43
2017-10-09T12:15:19.833Z,2.13
2017-10-09T12:17:46.668Z,1.80
2017-10-09T12:20:13.539Z,1.53
2017-10-09T12:22:40.697Z,2.50
2017-10-09T12:25:07.577Z,1.57
2017-10-09T12:27:34.790Z,1.50
2017-10-09T12:30:01.852Z,1.40
2017-10-09T12:32:28.648Z,1.80
2017-10-09T12:34:55.524Z,1.80
2017-10-09T12:37:22.368Z,1.80
2017-10-09T12:39:49.520Z,1.77
2017-10-09T12:42:16.403Z,1.63
2017-10-09T12:44:43.219Z,1.83
2017-10-09T12:47:10.352Z,1.03
2017-10-09T12:49:37.216Z,1.30
2017-10-09T12:52:04.042Z,1.60
2017-10-09T12:54:30.851Z,1.30
2017-10-09T12:56:57.923Z,1.63
2017-10-09T12:59:25.085Z,1.80
2017-10-09T13:01:51.948Z,1.20
2017-10-09T13:04:19.072Z,1.27
2017-10-09T13:06:45.883Z,0.90
2017-10-09T13:09:12.725Z,1.10
2017-10-09T13:11:40.021Z,0.90
2017-10-09T13:14:11.411Z,1.10
2017-10-09T13:16:41.386Z,1.20
2017-10-09T13:19:10.779Z,1.10
2017-10-09T13:21:43.489Z,0.90
2017-10-09T13:24:14.270Z,1.10
2017-10-09T13:26:41.135Z,1.03
2017-10-09T13:29:08.166Z,1.27
2017-10-09T13:31:35.895Z,1.97
2017-10-09T13:34:02.751Z,1.00
2017-10-09T13:36:29.567Z,1.10
2017-10-09T13:38:56.688Z,1.10
2017-10-09T13:41:23.503Z,1.20
2017-10-09T13:43:50.580Z,0.90
2017-10-09T13:46:17.727Z,1.33
2017-10-09T13:48:44.776Z,1.53
2017-10-09T13:51:11.823Z,1.63
2017-10-09T13:53:39.048Z,1.73
2017-10-09T13:56:06.404Z,2.40
2017-10-09T13:58:33.296Z,1.00
2017-10-09T14:01:00.229Z,1.50
2017-10-09T14:03:27.067Z,2.10
2017-10-09T14:05:53.899Z,1.50
2017-10-09T14:08:20.756Z,1.20
2017-10-09T14:10:47.899Z,1.43
2017-10-09T14:13:14.752Z,1.53
2017-10-09T14:15:41.886Z,1.40
2017-10-09T14:18:08.737Z,3.53
2017-10-09T14:20:35.554Z,1.37
2017-10-09T14:23:02.736Z,1.13
2017-10-09T14:25:30.036Z,1.23
2017-10-09T14:27:57.130Z,1.60
2017-10-09T14:30:23.959Z,2.20
2017-10-09T14:40:11.544Z,1.57
2017-10-09T14:42:38.702Z,2.13
2017-10-09T14:45:05.581Z,3.33
2017-10-09T14:47:32.696Z,1.30
2017-10-09T14:49:59.540Z,1.00
2017-10-09T14:52:26.696Z,1.50
2017-10-09T14:54:53.529Z,1.80
2017-10-09T14:57:20.686Z,1.13
2017-10-09T14:59:47.523Z,1.23
2017-10-09T15:02:14.343Z,1.27
2017-10-09T15:04:41.149Z,1.03
2017-10-09T15:07:07.972Z,1.33
2017-10-09T15:09:34.843Z,1.10
2017-10-09T15:12:01.721Z,1.70
2017-10-09T15:14:28.597Z,1.13
2017-10-09T15:16:55.738Z,1.60
2017-10-09T15:19:22.572Z,1.60
2017-10-09T15:21:49.392Z,1.33
2017-10-09T15:24:16.244Z,2.00
2017-10-09T15:26:43.054Z,2.10
2017-10-09T15:29:10.156Z,2.33
2017-10-09T15:31:37.312Z,1.40
2017-10-09T15:34:04.153Z,1.90
2017-10-09T15:36:30.980Z,1.47
2017-10-09T15:38:57.786Z,1.30
2017-10-09T15:41:24.591Z,1.83
2017-10-09T15:43:51.726Z,1.47
2017-10-09T15:46:18.565Z,2.07
2017-10-09T15:48:45.416Z,1.70
2017-10-09T15:51:12.260Z,1.63
2017-10-09T15:53:39.074Z,1.43
2017-10-09T15:56:05.888Z,2.33
2017-10-09T15:58:32.997Z,1.57
2017-10-09T16:00:59.868Z,1.80
2017-10-09T16:03:26.719Z,1.67
2017-10-09T16:05:53.601Z,1.53
2017-10-09T16:08:21.135Z,1.60
2017-10-09T16:10:47.948Z,2.07
2017-10-09T16:13:14.828Z,2.70
2017-10-09T16:15:41.680Z,2.53
2017-10-09T16:18:08.761Z,1.60
2017-10-09T16:20:35.634Z,2.10
2017-10-09T16:23:02.752Z,3.27
2017-10-09T16:25:29.566Z,3.50
2017-10-09T16:27:56.442Z,2.50
2017-10-09T16:30:23.300Z,2.60
2017-10-09T16:32:50.427Z,3.53
2017-10-09T16:35:17.285Z,5.47
2017-10-09T16:37:44.419Z,4.97
2017-10-09T16:40:11.272Z,3.60
2017-10-09T16:42:38.165Z,3.33
2017-10-09T16:45:05.028Z,4.57
2017-10-09T16:47:32.325Z,4.57
2017-10-09T16:49:59.572Z,3.43
2017-10-09T16:52:26.432Z,2.93
2017-10-09T16:54:53.319Z,2.93
2017-10-09T16:57:20.189Z,3.17
2017-10-09T16:59:47.018Z,3.97
2017-10-09T17:02:13.850Z,3.63
2017-10-09T17:04:41.032Z,3.60
2017-10-09T17:07:08.072Z,3.47
2017-10-09T17:09:35.327Z,2.90
2017-10-09T17:12:02.211Z,5.57
2017-10-09T17:14:29.325Z,5.13
2017-10-09T17:16:56.177Z,4.90
2017-10-09T17:19:23.315Z,3.00
2017-10-09T17:21:50.169Z,3.73
2017-10-09T17:24:17.011Z,3.23
2017-10-09T17:26:43.847Z,2.67
2017-10-09T17:29:10.670Z,3.13
2017-10-09T17:31:37.511Z,3.37
2017-10-09T17:34:04.389Z,3.97
2017-10-09T17:36:31.198Z,6.20
2017-10-09T17:38:58.045Z,4.13
2017-10-09T17:41:24.905Z,4.40
2017-10-09T17:43:51.719Z,3.63
2017-10-09T17:46:18.528Z,6.00
2017-10-09T17:48:45.745Z,4.97
2017-10-09T17:51:12.793Z,5.80
2017-10-09T17:53:39.605Z,3.70
2017-10-09T17:56:06.469Z,4.27
2017-10-09T17:58:33.629Z,3.20
2017-10-09T18:01:00.484Z,4.13
2017-10-09T18:03:27.364Z,8.80
2017-10-09T18:05:54.225Z,3.63
2017-10-09T18:08:21.076Z,2.50
2017-10-09T18:10:47.970Z,3.10
2017-10-09T18:13:14.821Z,2.27
2017-10-09T18:15:41.936Z,3.00
2017-10-09T18:18:09.090Z,3.40
2017-10-09T18:20:36.119Z,3.37
2017-10-09T18:23:02.957Z,3.10
2017-10-09T18:25:29.840Z,3.87
2017-10-09T18:27:56.664Z,4.20
2017-10-09T18:30:23.476Z,3.93
2017-10-09T18:32:50.656Z,5.60
2017-10-09T18:35:17.518Z,4.37
2017-10-09T18:37:44.354Z,4.60
2017-10-09T18:40:11.196Z,5.10
2017-10-09T18:42:38.057Z,4.73
2017-10-09T18:45:04.876Z,4.90
2017-10-09T18:47:31.754Z,4.83
2017-10-09T18:49:58.878Z,5.23
2017-10-09T18:52:26.023Z,6.97
2017-10-09T18:54:53.121Z,4.97
2017-10-09T18:57:19.991Z,5.33
2017-10-09T18:59:46.862Z,4.73
2017-10-09T19:02:13.699Z,5.77
2017-10-09T19:04:40.852Z,5.30
2017-10-09T19:07:07.721Z,5.50
2017-10-09T19:09:34.835Z,5.37
2017-10-09T19:12:01.888Z,5.97
2017-10-09T19:14:28.728Z,5.40
2017-10-09T19:16:55.897Z,6.27
2017-10-09T19:19:23.031Z,6.57
2017-10-09T19:21:50.180Z,6.03
2017-10-09T19:24:17.336Z,4.90
2017-10-09T19:26:44.488Z,5.70
2017-10-09T19:29:11.313Z,5.43
2017-10-09T19:31:38.182Z,5.20
2017-10-09T19:34:04.999Z,5.53
2017-10-09T19:36:32.069Z,6.47
2017-10-09T19:38:58.895Z,5.03
2017-10-09T19:41:25.732Z,5.43
2017-10-09T19:43:52.581Z,5.43
2017-10-09T19:46:19.453Z,5.50
2017-10-09T19:48:46.257Z,4.83
2017-10-09T19:51:13.120Z,4.07
2017-10-09T19:53:39.963Z,5.80
2017-10-09T19:56:07.116Z,5.80
2017-10-09T19:58:33.957Z,4.67
2017-10-09T20:01:01.108Z,5.30
2017-10-09T20:03:28.008Z,4.70
2017-10-09T20:05:55.200Z,4.53
2017-10-09T20:08:22.092Z,5.50
2017-10-09T20:10:48.926Z,5.60
2017-10-09T20:13:15.747Z,4.43
2017-10-09T20:15:42.620Z,5.37
2017-10-09T20:18:09.451Z,6.00
2017-10-09T20:20:36.301Z,5.80
2017-10-09T20:23:03.135Z,6.00
2017-10-09T20:25:30.171Z,4.70
2017-10-09T20:27:57.208Z,5.03
2017-10-09T20:30:24.089Z,6.13
2017-10-09T20:32:51.136Z,5.33
2017-10-09T20:35:17.965Z,7.73
2017-10-09T20:37:44.791Z,5.97
2017-10-09T20:40:11.611Z,5.90
2017-10-09T20:42:38.443Z,6.37
2017-10-09T20:45:05.320Z,6.80
2017-10-09T20:47:32.208Z,7.97
2017-10-09T20:49:59.018Z,7.47
2017-10-09T20:52:26.148Z,7.93
2017-10-09T20:54:52.992Z,8.67
2017-10-09T20:57:20.161Z,8.30
2017-10-09T20:59:46.994Z,7.03
2017-10-09T21:02:13.837Z,8.40
2017-10-09T21:04:40.670Z,8.07
2017-10-09T21:07:07.524Z,9.23
2017-10-09T21:09:34.385Z,9.30
2017-10-09T21:12:01.505Z,8.83
2017-10-09T21:14:28.361Z,9.53
2017-10-09T21:16:55.209Z,9.63
2017-10-09T21:19:22.116Z,9.80
2017-10-09T21:21:48.977Z,9.77
2017-10-09T21:24:15.835Z,8.33
2017-10-09T21:26:42.967Z,9.63
2017-10-09T21:29:10.120Z,10.30
2017-10-09T21:31:36.972Z,7.23
2017-10-09T21:34:03.833Z,8.80
2017-10-09T21:36:30.958Z,21.33
2017-10-09T21:38:57.821Z,11.53
2017-10-09T21:41:24.639Z,15.70
2017-10-09T21:43:51.799Z,13.70
2017-10-09T21:46:18.956Z,13.77
2017-10-09T21:48:45.824Z,16.03
2017-10-09T21:51:12.688Z,13.80
2017-10-09T21:53:39.540Z,25.90
2017-10-09T21:56:06.730Z,31.40
2017-10-09T21:58:33.600Z,30.40
2017-10-09T22:01:00.818Z,28.30
2017-10-09T22:03:27.981Z,29.97
2017-10-09T22:05:54.867Z,33.20
2017-10-09T22:08:21.720Z,38.60
2017-10-09T22:10:48.544Z,31.57
2017-10-09T22:13:15.420Z,36.50
2017-10-09T22:15:42.260Z,37.77
2017-10-09T22:18:09.124Z,40.60
2017-10-09T22:20:36.283Z,78.47
2017-10-09T22:23:03.164Z,44.13
2017-10-09T22:25:30.021Z,36.67
2017-10-09T22:27:56.913Z,35.40
2017-10-09T22:30:23.728Z,36.30
2017-10-09T22:32:50.913Z,32.97
2017-10-09T22:35:17.755Z,38.03
2017-10-09T22:37:44.602Z,54.20
2017-10-09T22:40:11.432Z,57.47
2017-10-09T22:42:38.332Z,39.37
2017-10-09T22:45:05.436Z,43.80
2017-10-09T22:47:32.255Z,32.90
2017-10-09T22:49:59.146Z,34.60
2017-10-09T22:52:25.971Z,30.87
2017-10-09T22:54:52.828Z,30.07
2017-10-09T22:57:19.957Z,38.60
2017-10-09T22:59:46.805Z,30.90
2017-10-09T23:02:13.643Z,33.50
2017-10-09T23:04:40.573Z,37.40
2017-10-09T23:07:07.406Z,36.70
2017-10-09T23:09:34.276Z,28.77
2017-10-09T23:12:01.144Z,44.23
2017-10-09T23:14:28.021Z,35.67
2017-10-09T23:16:54.884Z,30.83
2017-10-09T23:19:21.726Z,31.73
2017-10-09T23:21:48.585Z,40.40
2017-10-09T23:24:15.646Z,38.57
2017-10-09T23:26:42.520Z,39.40
2017-10-09T23:29:09.405Z,31.63
2017-10-09T23:31:36.575Z,33.87
2017-10-09T23:34:03.436Z,31.93
2017-10-09T23:36:30.279Z,38.97
2017-10-09T23:38:57.141Z,31.70
2017-10-09T23:41:24.261Z,29.50
2017-10-09T23:43:51.120Z,33.37
2017-10-09T23:46:17.983Z,32.10
2017-10-09T23:48:45.091Z,30.30
2017-10-09T23:51:12.244Z,31.23
2017-10-09T23:53:39.396Z,30.90
2017-10-09T23:56:06.259Z,33.00
2017-10-09T23:58:33.088Z,32.37
